Flight Track Log - Related Links

Times and Time Zones

All times are in EDT time to prevent confusion due to time zone crossing. See the SWA2236 flight status page for this flight to view local times or setup timezone preferences in your user account.

Time Position Orientation Groundspeed Altitude Reporting Facility
EDT Latitude Longitude Course Direction KTS MPH feet Rate Location/Type
Mon 07:34:06 PM 30.5233 -81.6411 57° Northeast 192 221 2,200  Level Jacksonville Center
Mon 07:35:07 PM 30.5647 -81.5969 43° Northeast 217 250 5,100 3,174 Climbing Jacksonville Center
Mon 07:36:07 PM 30.6267 -81.5333 41° Northeast 287 330 8,600 2,974 Climbing Jacksonville Center
Mon 07:37:04 PM 30.6783 -81.4819 41° Northeast 308 354 10,900 2,564 Climbing Jacksonville Center
Mon 07:38:04 PM 30.7550 -81.4203 35° Northeast 318 366 13,600 2,850 Climbing Jacksonville Center
Mon 07:39:04 PM 30.8550 -81.4044 North 328 377 16,600 2,750 Climbing Jacksonville Center
Mon 07:40:04 PM 30.9592 -81.3881 North 350 403 19,100 2,450 Climbing Jacksonville Center
Mon 07:41:04 PM 31.0656 -81.3719 North 372 428 21,500 2,300 Climbing Jacksonville Center
Mon 07:42:04 PM 31.1800 -81.3531 North 393 452 23,700 2,100 Climbing Jacksonville Center
Mon 07:43:04 PM 31.2947 -81.3367 North 405 466 25,700 2,050 Climbing Jacksonville Center
Mon 07:44:04 PM 31.4156 -81.3150 North 430 495 27,800 2,000 Climbing Jacksonville Center
Mon 07:45:04 PM 31.5489 -81.2933 North 436 502 29,700 1,600 Climbing Jacksonville Center
Mon 07:46:04 PM 31.6592 -81.2597 15° North 450 518 31,000 1,600 Climbing Jacksonville Center
Mon 07:47:04 PM 31.7683 -81.1553 39° Northeast 438 504 32,900 1,800 Climbing Jacksonville Center
Mon 07:48:04 PM 31.8672 -81.0603 39° Northeast 453 521 34,600 2,000 Climbing Jacksonville Center
Mon 07:49:04 PM 31.9517 -80.9753 40° Northeast 459 528 36,900 2,050 Climbing Jacksonville Center
Mon 07:50:04 PM 32.0525 -80.8778 39° Northeast 434 499 38,700 1,050 Climbing Jacksonville Center
Mon 07:51:04 PM 32.1347 -80.8022 38° Northeast 419 482 39,000 150 Climbing Jacksonville Center
Mon 07:52:04 PM 32.2311 -80.7044 41° Northeast 412 474 39,000  Level Jacksonville Center
Mon 07:53:04 PM 32.3214 -80.6161 40° Northeast 423 487 39,000  Level Jacksonville Center
Mon 07:54:04 PM 32.4117 -80.5228 41° Northeast 423 487 39,000  Level Jacksonville Center
Mon 07:55:04 PM 32.5017 -80.4319 40° Northeast 423 487 39,000  Level Jacksonville Center
Mon 07:56:04 PM 32.5939 -80.3406 40° Northeast 428 493 39,000  Level Jacksonville Center
Mon 07:57:04 PM 32.6858 -80.2467 41° Northeast 428 493 39,000  Level Jacksonville Center
Mon 07:58:04 PM 32.7736 -80.1550 41° Northeast 428 493 39,000  Level Jacksonville Center
Mon 07:59:04 PM 32.8675 -80.0583 41° Northeast 428 493 39,000  Level Jacksonville Center
Mon 08:00:04 PM 32.9681 -79.9783 34° Northeast 428 493 39,000  Level Jacksonville Center
Mon 08:01:04 PM 33.0728 -79.9056 30° Northeast 433 498 39,000  Level Jacksonville Center
Mon 08:02:04 PM 33.1672 -79.8381 31° Northeast 428 493 39,000  Level Jacksonville Center
Mon 08:03:04 PM 33.2678 -79.7675 30° Northeast 428 493 39,000  Level Jacksonville Center
Mon 08:04:04 PM 33.3681 -79.6917 32° Northeast 423 487 39,000  Level Jacksonville Center
Mon 08:05:04 PM 33.4664 -79.6186 32° Northeast 418 481 39,000  Level Jacksonville Center
Mon 08:06:04 PM 33.5686 -79.5450 31° Northeast 418 481 39,000  Level Jacksonville Center
Mon 08:07:04 PM 33.6711 -79.4686 32° Northeast 423 487 39,000  Level Jacksonville Center
Mon 08:08:04 PM 33.7672 -79.3975 32° Northeast 416 479 39,000  Level Jacksonville Center
Mon 08:09:04 PM 33.8694 -79.3233 31° Northeast 416 479 39,000  Level Jacksonville Center
Mon 08:10:04 PM 33.9675 -79.2494 32° Northeast 416 479 39,000  Level Jacksonville Center
Mon 08:12:06 PM 34.1661 -79.1031 31° Northeast 422 486 39,000  Level Washington Center
Mon 08:13:05 PM 34.2728 -79.0247 31° Northeast 417 480 39,000  Level Washington Center
Mon 08:14:05 PM 34.3644 -78.9556 32° Northeast 417 480 39,000  Level Washington Center
Mon 08:15:04 PM 34.4603 -78.8842 32° Northeast 417 480 39,000  Level Washington Center
Mon 08:16:05 PM 34.5500 -78.8094 34° Northeast 410 472 39,000 545 Level Washington Center
Mon 08:17:05 PM 34.6558 -78.7556 23° Northeast 405 466 40,100 942 Climbing Washington Center
Mon 08:18:06 PM 34.7742 -78.6969 22° Northeast 407 468 40,900 454 Climbing Washington Center
Mon 08:19:04 PM 34.8628 -78.6547 21° North 399 459 41,000 51 Climbing Washington Center
Mon 08:20:04 PM 34.9706 -78.6031 21° North 399 459 41,000  Level Washington Center
Mon 08:21:05 PM 35.0719 -78.5536 22° Northeast 394 453 41,000  Level Washington Center
Mon 08:22:06 PM 35.1733 -78.5014 23° Northeast 394 453 41,000  Level Washington Center
Mon 08:23:04 PM 35.2728 -78.4517 22° Northeast 394 453 41,000  Level Washington Center
Mon 08:24:04 PM 35.3742 -78.3942 25° Northeast 394 453 41,000  Level Washington Center
Mon 08:25:06 PM 35.4986 -78.3347 21° North 410 472 41,000  Level Washington Center
Mon 08:26:06 PM 35.6083 -78.2847 20° North 417 480 41,000  Level Washington Center
Mon 08:27:05 PM 35.7139 -78.2347 21° North 412 474 41,000  Level Washington Center
Mon 08:28:05 PM 35.8172 -78.1842 22° Northeast 407 468 41,000  Level Washington Center
Mon 08:29:05 PM 35.9247 -78.1314 22° Northeast 407 468 41,000  Level Washington Center
Mon 08:30:04 PM 36.0258 -78.0806 22° Northeast 407 468 41,000  Level Washington Center
Mon 08:31:05 PM 36.1314 -78.0300 21° North 401 461 41,000  Level Washington Center
Mon 08:32:06 PM 36.2325 -77.9789 22° Northeast 394 453 41,000 -496 Level Washington Center
Mon 08:33:06 PM 36.3336 -77.9253 23° Northeast 394 453 40,000 -1,220 Descending Washington Center
Mon 08:34:04 PM 36.4136 -77.8864 21° North 394 453 38,600 -2,237 Descending Washington Center
Mon 08:35:04 PM 36.5211 -77.8303 23° Northeast 382 440 35,600 -3,098 Descending Washington Center
Mon 08:36:06 PM 36.6222 -77.7789 22° Northeast 382 440 32,300 -3,200 Descending Washington Center
Mon 08:37:04 PM 36.7317 -77.7222 23° Northeast 397 457 29,200 -2,168 Descending Washington Center
Mon 08:38:05 PM 36.8433 -77.6631 23° Northeast 418 481 28,000 -836 Descending Washington Center
Mon 08:39:06 PM 36.9528 -77.6089 22° Northeast 418 481 27,500 -744 Descending Washington Center
Mon 08:40:06 PM 37.0622 -77.5544 22° Northeast 418 481 26,500 -1,017 Descending Washington Center
Mon 08:41:04 PM 37.1794 -77.5183 14° North 418 481 25,500 -1,008 Descending Washington Center
Mon 08:42:05 PM 37.2928 -77.4844 13° North 418 481 24,500 -984 Descending Washington Center
Mon 08:43:06 PM 37.4058 -77.4481 14° North 413 475 23,500 -756 Descending Washington Center
Mon 08:44:04 PM 37.5128 -77.4142 14° North 407 468 23,000 -252 Descending Washington Center
Mon 08:45:05 PM 37.6239 -77.3800 14° North 407 468 23,000  Level Washington Center
Mon 08:46:06 PM 37.7350 -77.3458 14° North 402 463 23,000 -50 Level Washington Center
Mon 08:47:05 PM 37.8439 -77.3089 15° North 402 463 22,900 -555 Descending Washington Center
Mon 08:48:05 PM 37.9528 -77.2744 14° North 397 457 21,900 -992 Descending Washington Center
Mon 08:49:06 PM 38.0617 -77.2428 13° North 397 457 20,900 -992 Descending Washington Center
Mon 08:50:06 PM 38.1686 -77.2081 14° North 397 457 19,900 -1,678 Descending Washington Center
Mon 08:51:04 PM 38.2775 -77.1708 15° North 397 457 17,600 -2,420 Descending Washington Center
Mon 08:52:05 PM 38.3822 -77.1358 15° North 392 451 15,100 -2,164 Descending Washington Center
Mon 08:53:06 PM 38.4628 -77.0394 43° Northeast 363 418 13,200 -1,537 Descending Washington Center
Mon 08:54:06 PM 38.5325 -76.9558 43° Northeast 357 411 12,000 -1,373 Descending Washington Center
Mon 08:55:04 PM 38.6000 -76.8722 44° Northeast 341 392 10,500 -1,059 Descending Washington Center
Mon 08:56:05 PM 38.6614 -76.7986 43° Northeast 313 360 9,900 -787 Descending Washington Center
Mon 08:57:06 PM 38.7142 -76.7250 47° Northeast 285 328 8,900 -1,208 Descending Washington Center
Mon 08:58:44 PM 38.7833 -76.5833 58° Northeast 275 316 6,700 -1,094 Descending Potomac TRACON
Mon 08:59:45 PM 38.8333 -76.5167 46° Northeast 250 288 6,000 -793 Descending Potomac TRACON
Mon 09:00:45 PM 38.8833 -76.4833 27° Northeast 233 268 5,100 -950 Descending Potomac TRACON
Mon 09:01:45 PM 38.9500 -76.5000 349° North 227 261 4,100 -850 Descending Potomac TRACON
Mon 09:02:45 PM 39.0000 -76.5167 345° North 222 255 3,400 -700 Descending Potomac TRACON
Mon 09:03:45 PM 39.0500 -76.5667 322° Northwest 207 238 2,700 -895 Descending Potomac TRACON
Mon 09:04:39 PM 39.1000 -76.6000 333° Northwest 184 212 1,700 -895 Descending Potomac TRACON
Mon 09:05:39 PM 39.1333 -76.6333 322° Northwest 141 162 1,000 -700 Descending Potomac TRACON
Mon 09:07:00 PM 39.1667 -76.6667 339° North  Level FlightAware Approximate
Mon 09:14:00 PM 39.1754 -76.6683 339° North  Level Estimated
Mon 09:15:00 PM 39.1754 -76.6683 339° North  Level Estimated
Mon 09:16:00 PM 39.1754 -76.6683 339° North  Level Estimated
Mon 09:17:00 PM 39.1754 -76.6683 339° North  Level Estimated
Mon 09:18:00 PM 39.1754 -76.6683 339° North  Level Estimated

Login

Don't have an account? Register now (free) for customized features, flight alerts, and more!